createdAt,value
2022-12-31T00:00:47.107Z,97044.72
2022-12-31T00:03:33.379Z,97055.31
2022-12-31T00:06:25.035Z,97054.41
2022-12-31T00:09:10.774Z,97057.75
2022-12-31T00:11:56.371Z,97077.06
2022-12-31T00:14:41.639Z,97062.91
2022-12-31T00:17:27.140Z,97067.75
2022-12-31T00:20:12.707Z,97086.84
2022-12-31T00:22:59.371Z,97079.47
2022-12-31T00:25:44.825Z,97090.91
2022-12-31T00:28:30.210Z,97095.72
2022-12-31T00:31:19.345Z,97088.91
2022-12-31T00:34:06.030Z,97094.00
2022-12-31T00:36:52.739Z,97124.28
2022-12-31T00:39:38.156Z,97115.88
2022-12-31T00:42:23.771Z,97119.09
2022-12-31T00:45:09.649Z,97110.94
2022-12-31T00:47:55.054Z,97120.25
2022-12-31T00:50:40.606Z,97118.16
2022-12-31T00:53:27.303Z,97114.72
2022-12-31T00:56:19.393Z,97120.69
2022-12-31T00:59:05.283Z,97104.34
2022-12-31T01:01:50.655Z,97111.72
2022-12-31T01:04:36.578Z,97111.72
2022-12-31T01:07:22.203Z,97129.69
2022-12-31T01:10:08.090Z,97129.69
2022-12-31T01:12:53.609Z,97143.75
2022-12-31T01:15:40.159Z,97155.72
2022-12-31T01:18:25.561Z,97158.94
2022-12-31T01:21:13.043Z,97155.25
2022-12-31T01:23:59.909Z,97162.41
2022-12-31T01:26:46.172Z,97154.13
2022-12-31T01:29:31.971Z,97162.06
2022-12-31T01:32:17.639Z,97163.09
2022-12-31T01:35:03.440Z,97177.38
2022-12-31T01:37:49.056Z,97165.16
2022-12-31T01:40:39.109Z,97178.22
2022-12-31T01:43:24.572Z,97186.50
2022-12-31T01:46:11.575Z,97183.38
2022-12-31T01:49:04.620Z,97185.56
2022-12-31T01:51:59.008Z,97185.09
2022-12-31T01:54:50.472Z,97185.69
2022-12-31T01:57:37.548Z,97175.88
2022-12-31T02:00:23.383Z,97184.41
2022-12-31T02:03:09.719Z,97181.75
2022-12-31T02:06:04.019Z,97175.78
2022-12-31T02:08:50.455Z,97185.09
2022-12-31T02:11:38.155Z,97185.69
2022-12-31T02:14:28.774Z,97192.38
2022-12-31T02:17:23.519Z,97193.50
2022-12-31T02:21:06.737Z,97178.19
2022-12-31T02:24:18.049Z,97186.00
2022-12-31T02:27:33.391Z,97186.34
2022-12-31T02:30:22.281Z,97183.22
2022-12-31T02:33:16.946Z,97186.22
2022-12-31T02:36:10.255Z,97175.38
2022-12-31T02:38:56.792Z,97180.09
2022-12-31T02:41:51.313Z,97178.81
2022-12-31T02:44:39.140Z,97174.88
2022-12-31T02:47:38.497Z,97183.44
2022-12-31T02:50:38.849Z,97184.03
2022-12-31T02:53:53.512Z,97179.94
2022-12-31T02:56:51.991Z,97174.28
2022-12-31T03:00:41.502Z,97185.22
2022-12-31T03:03:27.929Z,97182.44
2022-12-31T03:06:14.180Z,97180.34
2022-12-31T03:09:14.769Z,97179.31
2022-12-31T03:12:19.910Z,97180.94
2022-12-31T03:15:06.888Z,97178.53
2022-12-31T03:18:12.639Z,97189.69
2022-12-31T03:21:16.969Z,97184.72
2022-12-31T03:24:21.142Z,97187.69
2022-12-31T03:27:06.853Z,97181.44
2022-12-31T03:29:52.147Z,97176.72
2022-12-31T03:32:37.491Z,97184.19
2022-12-31T03:35:24.411Z,97192.72
2022-12-31T03:38:10.325Z,97192.00
2022-12-31T03:40:56.191Z,97187.63
2022-12-31T03:43:41.499Z,97193.22
2022-12-31T03:46:27.505Z,97191.16
2022-12-31T03:49:12.817Z,97177.88
2022-12-31T03:51:58.078Z,97187.44
2022-12-31T03:54:43.481Z,97190.56
2022-12-31T03:57:29.350Z,97185.50
2022-12-31T04:00:21.206Z,97177.00
2022-12-31T04:03:06.618Z,97181.16
2022-12-31T04:05:54.519Z,97185.41
2022-12-31T04:08:39.910Z,97185.19
2022-12-31T04:11:25.450Z,97183.88
2022-12-31T04:14:11.708Z,97183.88
2022-12-31T04:16:57.475Z,97173.59
2022-12-31T04:19:42.989Z,97187.44
2022-12-31T04:22:29.424Z,97194.38
2022-12-31T04:25:15.168Z,97183.75
2022-12-31T04:28:00.906Z,97200.81
2022-12-31T04:30:46.543Z,97199.53
2022-12-31T04:33:31.940Z,97191.34
2022-12-31T04:36:17.625Z,97208.41
2022-12-31T04:39:03.364Z,97217.97
2022-12-31T04:41:49.129Z,97198.91
2022-12-31T04:44:35.156Z,97205.03
2022-12-31T04:47:23.795Z,97215.47
2022-12-31T04:50:09.668Z,97216.06
2022-12-31T04:52:54.966Z,97209.72
2022-12-31T04:55:41.518Z,97200.13
2022-12-31T04:58:27.538Z,97187.16
2022-12-31T05:01:14.820Z,97217.09
2022-12-31T05:04:00.531Z,97218.13
2022-12-31T05:06:46.145Z,97222.41
2022-12-31T05:09:31.640Z,97221.13
2022-12-31T05:12:17.095Z,97229.91
2022-12-31T05:15:02.807Z,97225.72
2022-12-31T05:17:48.251Z,97230.00
2022-12-31T05:20:34.344Z,97228.97
2022-12-31T05:23:19.874Z,97240.06
2022-12-31T05:26:05.386Z,97239.59
2022-12-31T05:28:51.002Z,97242.00
2022-12-31T05:31:36.430Z,97240.38
2022-12-31T05:34:21.830Z,97239.81
2022-12-31T05:37:07.225Z,97253.84
2022-12-31T05:39:54.999Z,97250.69
2022-12-31T05:42:40.813Z,97249.00
2022-12-31T05:45:30.731Z,97247.56
2022-12-31T05:48:16.453Z,97241.28
2022-12-31T05:51:01.971Z,97243.53
2022-12-31T05:53:47.287Z,97254.16
2022-12-31T05:56:33.029Z,97260.84
2022-12-31T05:59:19.338Z,97265.44
2022-12-31T06:02:05.130Z,97253.50
2022-12-31T06:04:52.598Z,97272.69
2022-12-31T06:07:38.377Z,97275.34
2022-12-31T06:10:23.959Z,97275.09
2022-12-31T06:13:09.489Z,97273.81
2022-12-31T06:15:54.974Z,97280.28
2022-12-31T06:18:40.532Z,97260.47
2022-12-31T06:21:25.952Z,97269.09
2022-12-31T06:24:11.294Z,97243.84
2022-12-31T06:26:56.777Z,97260.44
2022-12-31T06:29:42.291Z,97275.63
2022-12-31T06:32:27.662Z,97277.13
2022-12-31T06:35:13.437Z,97283.34
2022-12-31T06:37:58.700Z,97275.13
2022-12-31T06:40:44.129Z,97277.53
2022-12-31T06:43:29.511Z,97280.28
2022-12-31T06:46:17.333Z,97264.84
2022-12-31T06:49:03.264Z,97276.63
2022-12-31T06:51:49.132Z,97282.03
2022-12-31T06:54:35.241Z,97276.25
2022-12-31T06:57:21.141Z,97273.69
2022-12-31T07:00:07.579Z,97285.69
2022-12-31T07:03:15.223Z,97279.31
2022-12-31T07:06:31.553Z,97286.06
2022-12-31T07:09:32.422Z,97278.97
2022-12-31T07:12:42.614Z,97279.28
2022-12-31T07:15:37.245Z,97289.41
2022-12-31T07:18:25.543Z,97292.09
2022-12-31T07:21:18.176Z,97331.28
2022-12-31T07:24:05.629Z,97306.03
2022-12-31T07:27:24.412Z,97334.63
2022-12-31T07:30:17.732Z,97320.06
2022-12-31T07:33:18.791Z,97327.06
2022-12-31T07:36:39.147Z,97337.81
2022-12-31T07:39:50.399Z,97349.56
2022-12-31T07:42:57.015Z,97327.75
2022-12-31T07:45:59.108Z,97327.25
2022-12-31T07:48:44.869Z,97330.47
2022-12-31T07:51:31.037Z,97342.44
2022-12-31T07:54:16.891Z,97349.38
2022-12-31T07:57:02.621Z,97340.31
2022-12-31T08:00:00.976Z,97340.63
2022-12-31T08:02:49.208Z,97352.41
2022-12-31T08:05:54.201Z,97357.00
2022-12-31T08:08:46.802Z,97352.84
2022-12-31T08:11:54.961Z,97360.03
2022-12-31T08:14:44.927Z,97354.22
2022-12-31T08:17:30.406Z,97351.06
2022-12-31T08:20:17.639Z,97368.41
2022-12-31T08:23:29.507Z,97351.63
2022-12-31T08:26:38.409Z,97363.22
2022-12-31T08:29:34.752Z,97366.19
2022-12-31T08:32:42.260Z,97374.22
2022-12-31T08:35:54.832Z,97373.16
2022-12-31T08:38:59.916Z,97361.03
2022-12-31T08:41:48.651Z,97381.03
2022-12-31T08:44:34.318Z,97394.16
2022-12-31T08:47:52.773Z,97379.25
2022-12-31T08:50:42.292Z,97384.94
2022-12-31T08:53:28.056Z,97386.56
2022-12-31T08:56:31.648Z,97394.56
2022-12-31T08:59:42.013Z,97404.72
2022-12-31T09:02:52.766Z,97387.94
2022-12-31T09:05:58.783Z,97385.84
2022-12-31T09:08:50.850Z,97394.38
2022-12-31T09:12:08.756Z,97402.44
2022-12-31T09:15:04.274Z,97393.16
2022-12-31T09:17:51.079Z,97406.25
2022-12-31T09:20:44.899Z,97406.81
2022-12-31T09:23:30.747Z,97405.25
2022-12-31T09:26:48.057Z,97409.78
2022-12-31T09:29:58.475Z,97410.38
2022-12-31T09:33:01.064Z,97399.72
2022-12-31T09:35:54.202Z,97404.28
2022-12-31T09:38:54.510Z,97389.63
2022-12-31T09:41:40.187Z,97393.69
2022-12-31T09:45:08.163Z,97407.84
2022-12-31T09:48:12.065Z,97393.41
2022-12-31T09:51:25.424Z,97389.97
2022-12-31T09:54:35.667Z,97393.75
2022-12-31T09:57:48.466Z,97406.06
2022-12-31T10:00:56.720Z,97394.06
2022-12-31T10:04:08.682Z,97378.34
2022-12-31T10:07:18.552Z,97370.63
2022-12-31T10:10:13.625Z,97387.78
2022-12-31T10:13:17.392Z,97383.22
2022-12-31T10:16:13.788Z,97382.75
2022-12-31T10:19:11.539Z,97403.88
2022-12-31T10:22:28.245Z,97402.03
2022-12-31T10:25:38.559Z,97380.34
2022-12-31T10:28:36.683Z,97379.28
2022-12-31T10:31:40.689Z,97379.00
2022-12-31T10:34:35.134Z,97386.78
2022-12-31T10:37:28.257Z,97378.75
2022-12-31T10:40:32.501Z,97386.56
2022-12-31T10:43:26.986Z,97359.03
2022-12-31T10:46:43.769Z,97376.97
2022-12-31T10:49:47.691Z,97367.59
2022-12-31T10:52:41.370Z,97374.56
2022-12-31T10:55:52.075Z,97375.88
2022-12-31T10:58:40.594Z,97378.31
2022-12-31T11:01:40.724Z,97377.50
2022-12-31T11:04:52.859Z,97371.91
2022-12-31T11:08:00.279Z,97382.31
2022-12-31T11:11:13.078Z,97376.47
2022-12-31T11:14:38.230Z,97389.09
2022-12-31T11:17:38.722Z,97368.75
2022-12-31T11:20:27.399Z,97373.59
2022-12-31T11:23:34.054Z,97393.38
2022-12-31T11:26:22.803Z,97379.19
2022-12-31T11:29:38.319Z,97376.22
2022-12-31T11:32:34.722Z,97361.75
2022-12-31T11:35:34.712Z,97355.06
2022-12-31T11:38:32.015Z,97345.94
2022-12-31T11:41:46.600Z,97354.25
2022-12-31T11:44:53.201Z,97356.13
2022-12-31T11:51:42.106Z,97334.72
2022-12-31T11:54:43.010Z,97372.19
2022-12-31T11:57:38.765Z,97359.59
2022-12-31T12:00:26.873Z,97345.97
2022-12-31T12:03:12.955Z,97351.34
2022-12-31T12:05:59.012Z,97351.63
2022-12-31T12:08:46.666Z,97357.78
2022-12-31T12:11:35.816Z,97344.38
2022-12-31T12:14:32.633Z,97363.94
2022-12-31T12:17:34.484Z,97353.22
2022-12-31T12:20:31.999Z,97369.00
2022-12-31T12:23:24.366Z,97365.00
2022-12-31T12:26:38.367Z,97344.94
2022-12-31T12:29:29.387Z,97372.25
2022-12-31T12:32:18.503Z,97361.00
2022-12-31T12:35:16.165Z,97354.53
2022-12-31T12:38:07.168Z,97352.41
2022-12-31T12:41:04.941Z,97358.59
2022-12-31T12:44:02.188Z,97396.28
2022-12-31T12:46:50.059Z,97363.13
2022-12-31T12:49:42.359Z,97353.75
2022-12-31T12:52:37.571Z,97349.22
2022-12-31T12:55:32.197Z,97360.97
2022-12-31T12:58:23.940Z,97354.03
2022-12-31T13:01:25.782Z,97371.97
2022-12-31T13:04:48.478Z,97368.50
2022-12-31T13:08:02.778Z,97369.84
2022-12-31T13:11:04.772Z,97365.00
2022-12-31T13:14:30.056Z,97365.00
2022-12-31T13:17:40.766Z,97366.88
2022-12-31T13:20:45.477Z,97372.22
2022-12-31T13:23:55.373Z,97362.84
2022-12-31T13:26:42.316Z,97351.63
2022-12-31T13:29:33.297Z,97345.72
2022-12-31T13:32:44.894Z,97357.00
2022-12-31T13:35:44.739Z,97371.44
2022-12-31T13:38:49.766Z,97358.84
2022-12-31T13:41:42.492Z,97371.16
2022-12-31T13:44:46.140Z,97362.06
2022-12-31T13:47:45.293Z,97374.38
2022-12-31T13:50:44.838Z,97366.63
2022-12-31T13:53:53.627Z,97392.06
2022-12-31T13:56:41.058Z,97376.25
2022-12-31T13:59:39.073Z,97380.78
2022-12-31T14:02:33.739Z,97367.38
2022-12-31T14:05:42.188Z,97372.22
2022-12-31T14:08:28.187Z,97373.59
2022-12-31T14:11:26.030Z,97376.25
2022-12-31T14:14:24.886Z,97373.31
2022-12-31T14:17:19.500Z,97362.56
2022-12-31T14:20:39.159Z,97362.53
2022-12-31T14:23:46.018Z,97371.34
2022-12-31T14:26:38.792Z,97368.69
2022-12-31T14:29:42.847Z,97384.16
2022-12-31T14:32:47.113Z,97374.78
2022-12-31T14:35:51.136Z,97380.63
2022-12-31T14:38:54.880Z,97383.31
2022-12-31T14:41:53.987Z,97385.16
2022-12-31T14:44:56.364Z,97398.22
2022-12-31T14:47:55.300Z,97405.47
2022-12-31T14:50:44.822Z,97390.78
2022-12-31T14:53:30.382Z,97389.97
2022-12-31T14:56:43.221Z,97397.44
2022-12-31T14:59:33.350Z,97397.97
2022-12-31T15:02:34.181Z,97408.13
2022-12-31T15:05:23.729Z,97400.63
2022-12-31T15:08:26.922Z,97409.38
2022-12-31T15:11:36.875Z,97401.91
2022-12-31T15:14:43.274Z,97397.56
2022-12-31T15:18:05.298Z,97390.56
2022-12-31T15:20:59.235Z,97400.19
2022-12-31T15:23:46.203Z,97394.78
2022-12-31T15:26:32.487Z,97398.75
2022-12-31T15:29:28.492Z,97398.44
2022-12-31T15:32:31.173Z,97408.75
2022-12-31T15:35:22.666Z,97410.06
2022-12-31T15:38:11.256Z,97407.84
2022-12-31T15:40:57.349Z,97409.38
2022-12-31T15:43:54.565Z,97421.59
2022-12-31T15:46:42.664Z,97420.50
2022-12-31T15:49:37.235Z,97426.88
2022-12-31T15:52:29.863Z,97429.00
2022-12-31T15:55:25.302Z,97434.78
2022-12-31T15:58:15.111Z,97437.22
2022-12-31T16:01:06.836Z,97443.66
2022-12-31T16:04:07.952Z,97442.34
2022-12-31T16:06:58.504Z,97443.38
2022-12-31T16:09:51.625Z,97441.72
2022-12-31T16:12:44.382Z,97447.59
2022-12-31T16:15:32.949Z,97448.06
2022-12-31T16:18:23.079Z,97444.31
2022-12-31T16:21:38.828Z,97442.88
2022-12-31T16:24:37.400Z,97448.97
2022-12-31T16:27:30.638Z,97448.69
2022-12-31T16:30:31.029Z,97459.84
2022-12-31T16:33:16.643Z,97460.34
2022-12-31T16:36:02.055Z,97453.72
2022-12-31T16:38:47.792Z,97449.91
2022-12-31T16:41:42.970Z,97446.09
2022-12-31T16:44:30.244Z,97442.81
2022-12-31T16:47:36.263Z,97437.66
2022-12-31T16:50:24.371Z,97439.22
2022-12-31T16:53:14.571Z,97432.50
2022-12-31T16:56:04.867Z,97441.63
2022-12-31T16:58:57.312Z,97440.88
2022-12-31T17:01:43.599Z,97435.59
2022-12-31T17:04:29.541Z,97433.19
2022-12-31T17:07:39.234Z,97444.38
2022-12-31T17:10:32.751Z,97441.63
2022-12-31T17:13:28.269Z,97448.75
2022-12-31T17:16:17.784Z,97444.22
2022-12-31T17:19:04.152Z,97450.19
2022-12-31T17:21:50.011Z,97446.53
2022-12-31T17:24:36.045Z,97450.81
2022-12-31T17:27:21.782Z,97446.81
2022-12-31T17:30:40.529Z,97445.78
2022-12-31T17:33:30.811Z,97453.34
2022-12-31T17:36:23.235Z,97450.47
2022-12-31T17:39:40.055Z,97445.19
2022-12-31T17:42:37.143Z,97434.38
2022-12-31T17:45:22.651Z,97434.69
2022-12-31T17:48:12.159Z,97443.47
2022-12-31T17:50:59.957Z,97445.63
2022-12-31T17:53:45.362Z,97442.38
2022-12-31T17:56:30.718Z,97432.47
2022-12-31T17:59:18.438Z,97431.66
2022-12-31T18:02:05.300Z,97429.22
2022-12-31T18:04:51.087Z,97442.28
2022-12-31T18:07:37.615Z,97447.25
2022-12-31T18:10:25.362Z,97440.19
2022-12-31T18:13:17.634Z,97449.69
2022-12-31T18:16:03.598Z,97444.78
2022-12-31T18:18:49.533Z,97449.50
2022-12-31T18:21:36.209Z,97445.94
2022-12-31T18:24:26.015Z,97453.84
2022-12-31T18:27:19.473Z,97454.06
2022-12-31T18:30:08.178Z,97450.19
2022-12-31T18:32:54.053Z,97454.81
2022-12-31T18:36:07.837Z,97453.53
2022-12-31T18:38:45.949Z,97451.72
2022-12-31T18:41:51.064Z,97461.53
2022-12-31T18:44:36.515Z,97463.94
2022-12-31T18:47:24.713Z,97462.56
2022-12-31T18:50:15.225Z,97453.72
2022-12-31T18:53:01.011Z,97459.53
2022-12-31T18:55:55.648Z,97460.84
2022-12-31T18:58:41.489Z,97459.88
2022-12-31T19:01:35.694Z,97464.75
2022-12-31T19:04:27.603Z,97460.50
2022-12-31T19:07:13.888Z,97461.56
2022-12-31T19:09:59.470Z,97447.50
2022-12-31T19:12:44.952Z,97453.59
2022-12-31T19:15:41.572Z,97451.50
2022-12-31T19:18:27.117Z,97450.03
2022-12-31T19:21:18.840Z,97452.66
2022-12-31T19:24:13.295Z,97451.56
2022-12-31T19:27:00.854Z,97459.09
2022-12-31T19:29:46.492Z,97452.91
2022-12-31T19:32:31.714Z,97455.69
2022-12-31T19:35:17.519Z,97455.56
2022-12-31T19:38:05.190Z,97459.59
2022-12-31T19:40:52.002Z,97461.84
2022-12-31T19:43:37.405Z,97462.94
2022-12-31T19:46:24.929Z,97467.44
2022-12-31T19:49:14.728Z,97468.16
2022-12-31T19:52:00.499Z,97475.22
2022-12-31T19:54:45.993Z,97469.22
2022-12-31T19:57:31.622Z,97467.41
2022-12-31T20:00:18.724Z,97474.72
2022-12-31T20:03:04.383Z,97472.59
2022-12-31T20:05:50.282Z,97472.91
2022-12-31T20:08:43.406Z,97463.97
2022-12-31T20:11:28.934Z,97457.75
2022-12-31T20:14:14.637Z,97457.59
2022-12-31T20:17:01.132Z,97457.63
2022-12-31T20:22:46.752Z,97461.19
2022-12-31T20:25:32.089Z,97456.47
2022-12-31T20:28:17.594Z,97459.44
2022-12-31T20:31:07.997Z,97473.63
2022-12-31T20:33:54.683Z,97469.13
2022-12-31T20:36:41.093Z,97469.97
2022-12-31T20:39:28.045Z,97476.44
2022-12-31T20:42:13.665Z,97482.16
2022-12-31T20:44:59.143Z,97482.97
2022-12-31T20:47:44.669Z,97481.25
2022-12-31T20:50:30.230Z,97484.72
2022-12-31T20:53:15.689Z,97483.72
2022-12-31T20:56:08.885Z,97481.94
2022-12-31T20:58:54.299Z,97489.34
2022-12-31T21:02:18.873Z,97488.53
2022-12-31T21:04:47.027Z,97486.94
2022-12-31T21:07:32.620Z,97483.16
2022-12-31T21:10:18.222Z,97481.91
2022-12-31T21:13:04.162Z,97470.81
2022-12-31T21:15:51.656Z,97475.19
2022-12-31T21:18:37.112Z,97475.25
2022-12-31T21:21:23.068Z,97469.53
2022-12-31T21:24:08.894Z,97474.44
2022-12-31T21:26:55.977Z,97488.47
2022-12-31T21:30:02.052Z,97482.13
2022-12-31T21:32:49.390Z,97480.53
2022-12-31T21:38:37.470Z,97489.22
2022-12-31T21:41:41.723Z,97486.56
2022-12-31T21:44:28.593Z,97485.50
2022-12-31T21:51:16.847Z,97508.56
2022-12-31T21:54:02.227Z,97503.97
2022-12-31T21:56:48.937Z,97505.38
2022-12-31T22:00:16.069Z,97494.69
2022-12-31T22:03:24.401Z,97505.09
2022-12-31T22:06:22.002Z,97503.19
2022-12-31T22:09:07.484Z,97516.53
2022-12-31T22:11:53.475Z,97520.47
2022-12-31T22:14:39.122Z,97510.59
2022-12-31T22:17:44.932Z,97518.03
2022-12-31T22:20:30.433Z,97526.34
2022-12-31T22:23:16.080Z,97523.13
2022-12-31T22:26:02.879Z,97523.38
2022-12-31T22:28:48.842Z,97524.44
2022-12-31T22:31:34.667Z,97522.25
2022-12-31T22:34:20.128Z,97517.41
2022-12-31T22:37:35.336Z,97521.09
2022-12-31T22:40:11.551Z,97519.50
2022-12-31T22:42:57.047Z,97519.25
2022-12-31T22:45:42.539Z,97518.94
2022-12-31T22:48:28.065Z,97516.56
2022-12-31T22:51:14.941Z,97523.81
2022-12-31T22:54:06.852Z,97525.63
2022-12-31T22:56:52.219Z,97528.88
2022-12-31T22:59:37.969Z,97527.72
2022-12-31T23:02:28.377Z,97525.53
2022-12-31T23:05:25.603Z,97531.94
2022-12-31T23:08:20.638Z,97526.38
2022-12-31T23:11:11.320Z,97530.69
2022-12-31T23:14:27.091Z,97522.69
2022-12-31T23:24:19.091Z,97514.94
2022-12-31T23:27:25.083Z,97510.94
2022-12-31T23:34:36.432Z,97511.94
2022-12-31T23:37:22.027Z,97519.69
2022-12-31T23:40:08.626Z,97512.44
2022-12-31T23:42:54.476Z,97511.88
2022-12-31T23:45:40.756Z,97513.47
2022-12-31T23:48:26.064Z,97503.09
2022-12-31T23:51:11.786Z,97504.41
2022-12-31T23:53:57.625Z,97510.50
2022-12-31T23:56:43.017Z,97510.41
2022-12-31T23:59:28.568Z,97503.47
